Aérodrome :
LOGIN :

S'inscrire | Disclaimer

   EN    FR    IT 

 










Légende :    VFR   VFR Marginal   IFR   IFR Intensif   IFR Très Intensif
Visi : 
Plafond : 
>= 8 km
>= 3000ft
5 à 8 km
1000 à 3000 ft
1500m à 5 km
500 à 1000 ft
800 à 1500m
200 à 500 ft
< 800m
< 200 ft
Symboles :   Orages  Brouillard  Fortes neiges  Fortes précipitations  Vent > 20 kt
SIGMETs :   Divers  Orages  Givrage  Turbulence  Onde Orograph.  Cendres Volcan.







- Altitude de l'aérodrome : 286 ft
- Code IATA : FFD


EGVA - RAF Fairford

DERNIER METAR :
  • 190131Z AUTO 14012KT M M OVC014 05/01 A2978 RMK AO2 SLP091 RVRNO $

METARs EXPIRÉS :
  • 190056Z AUTO 15013KT M M BKN019 OVC027 05/01 A2979 RMK AO2 RAB14E26 BKN V OVC CIG 018 RWY09 SLP094 P0000 T00460011 RVRNO $
  • 190036Z AUTO 15009KT M M OVC019 05/01 A2980 RMK AO2 RAB14E26 SLP098 RVRNO $
  • 190026Z AUTO 15012KT M M OVC021 05/01 A2980 RMK AO2 RAB14E26 SLP098 RVRNO $
  • 190014Z AUTO 15009KT M -RA OVC021 05/01 A2980 RMK AO2 RAB14 SLP098 RVRNO $
  • 182356Z AUTO 16010KT M M OVC023 05/00 A2981 RMK AO2 SLP101 60000 T00470003 10048 20041 400571027 57009 RVRNO $
  • 182256Z AUTO 15009KT M M OVC027 05/M01 A2981 RMK AO2 SLP101 T00461008 RVRNO $

Prévision TAF périmée.
Pas de NOTAMs connus pour ce terrain.



MET'MAP, la Météo Aéronautique d'un coup d'oeil ! - Copyright ORBIFLY Décembre 2007 - Disclaimer

ORBIFLY MET'MAP TEAM :

Programmation & Développement : Alexandra Zaïnal
Conception & Développement : Baudouin d'Aumeries
Co-Programmation & Développement : Marc-Olivier Méhu
Soutien technique & logistique : Manuel Goepfert

Contact : metmap@orbifly.com




SOURCES & CREDITS :

   NOAA